Time;durP1;ratioP1;P1;durP2;ratioP2;P2;SDS_P1;SDS_P2;PMS_P1;PMS_P2;Temp;Humidity;BMP_temperature;BMP_pressure;BME280_temperature;BME280_humidity;BME280_pressure;Samples;Min_cycle;Max_cycle;Signal;HPM_P1;HPM_P2
2021/12/27 00:01:25;;;;;;;9.57;8.35;;;5.60;99.90;;;;;;4975896;28;20663;-77
2021/12/27 00:03:52;;;;;;;9.90;7.35;;;5.70;99.90;;;;;;4976018;28;20237;-77
2021/12/27 00:06:18;;;;;;;10.65;8.85;;;5.70;99.90;;;;;;4976214;28;20176;-77
2021/12/27 00:08:44;;;;;;;12.82;10.02;;;5.60;99.90;;;;;;4977595;28;20172;-76
2021/12/27 00:11:11;;;;;;;8.83;7.83;;;5.60;99.90;;;;;;4978031;28;20598;-76
2021/12/27 00:13:37;;;;;;;8.98;8.07;;;5.50;99.90;;;;;;4977789;28;20176;-76
2021/12/27 00:16:03;;;;;;;8.67;6.73;;;5.50;99.90;;;;;;4974993;28;20258;-76
2021/12/27 00:18:29;;;;;;;7.30;6.40;;;5.50;99.90;;;;;;4976175;28;20622;-77
2021/12/27 00:20:55;;;;;;;7.35;6.55;;;5.50;99.90;;;;;;4976320;28;20254;-77
2021/12/27 00:23:21;;;;;;;8.93;7.20;;;5.50;99.90;;;;;;4977370;28;20283;-76
2021/12/27 00:25:47;;;;;;;8.30;7.40;;;5.50;99.90;;;;;;4977493;28;20638;-76
2021/12/27 00:28:13;;;;;;;8.70;6.10;;;5.50;99.90;;;;;;4978151;28;20191;-76
2021/12/27 00:30:38;;;;;;;9.93;7.10;;;5.50;99.90;;;;;;4978837;28;20199;-76
2021/12/27 00:33:04;;;;;;;8.50;7.00;;;5.60;99.90;;;;;;4977524;28;20176;-76
2021/12/27 00:35:32;;;;;;;6.72;6.05;;;5.60;99.90;;;;;;4958597;28;20225;-76
2021/12/27 00:37:59;;;;;;;7.78;6.88;;;5.60;99.90;;;;;;4975515;28;20249;-76
2021/12/27 00:40:25;;;;;;;7.47;6.65;;;5.60;99.90;;;;;;4976132;28;20267;-76
2021/12/27 00:42:51;;;;;;;10.00;8.17;;;5.70;99.90;;;;;;4975352;28;20287;-76
2021/12/27 00:45:18;;;;;;;7.45;6.45;;;5.60;99.90;;;;;;4975282;28;20695;-76
2021/12/27 00:47:44;;;;;;;10.05;8.23;;;5.60;99.90;;;;;;4974546;28;20284;-76
2021/12/27 00:50:10;;;;;;;7.87;6.07;;;5.60;99.90;;;;;;4975185;28;20647;-76
2021/12/27 00:52:36;;;;;;;8.77;7.47;;;5.70;99.90;;;;;;4957485;28;20575;-76
2021/12/27 00:55:04;;;;;;;8.48;6.50;;;5.60;99.90;;;;;;4975117;28;20578;-76
2021/12/27 00:57:30;;;;;;;10.18;8.23;;;5.70;99.90;;;;;;4974058;28;20550;-76
2021/12/27 00:59:56;;;;;;;7.57;6.60;;;5.70;99.90;;;;;;4957813;28;20178;-76
2021/12/27 01:02:22;;;;;;;10.17;7.47;;;5.70;99.90;;;;;;4974822;28;20927;-76
2021/12/27 01:04:47;;;;;;;9.40;7.67;;;5.70;99.90;;;;;;4974764;28;20210;-76
2021/12/27 01:07:13;;;;;;;8.60;7.30;;;5.70;99.90;;;;;;4974302;28;20278;-76
2021/12/27 01:12:31;;;;;;;12.70;9.13;;;5.70;99.90;;;;;;4957080;28;20190;-76
2021/12/27 01:17:34;;;;;;;6.95;6.20;;;5.80;99.90;;;;;;4974193;28;20235;-76
2021/12/27 01:20:00;;;;;;;6.78;5.22;;;5.80;99.90;;;;;;4957288;28;20247;-76
2021/12/27 01:22:26;;;;;;;7.10;6.37;;;5.90;99.90;;;;;;4957499;28;20732;-76
2021/12/27 01:24:51;;;;;;;8.20;7.33;;;5.90;99.90;;;;;;4974043;28;20555;-76
2021/12/27 01:27:17;;;;;;;8.33;6.70;;;5.90;99.90;;;;;;4973792;28;20190;-76
2021/12/27 01:29:43;;;;;;;7.90;7.10;;;5.90;99.90;;;;;;4974267;28;20164;-76
2021/12/27 01:32:08;;;;;;;6.83;6.10;;;5.90;99.90;;;;;;4974508;28;20168;-76
2021/12/27 01:34:34;;;;;;;6.23;5.63;;;5.90;99.90;;;;;;4973762;28;20195;-76
2021/12/27 01:37:00;;;;;;;9.03;6.93;;;6.00;99.90;;;;;;4940241;28;20582;-76
2021/12/27 01:39:26;;;;;;;7.38;6.55;;;6.00;99.90;;;;;;4973918;28;20176;-76
2021/12/27 01:41:52;;;;;;;8.07;7.27;;;6.10;99.90;;;;;;4972983;28;20191;-76
2021/12/27 01:44:18;;;;;;;8.73;7.70;;;6.10;99.90;;;;;;4973128;28;20231;-76
2021/12/27 01:46:44;;;;;;;7.57;6.60;;;6.10;99.90;;;;;;4956172;28;20614;-76
2021/12/27 01:49:10;;;;;;;7.50;6.53;;;6.00;99.90;;;;;;4974157;28;20159;-77
2021/12/27 01:51:38;;;;;;;7.13;6.27;;;6.00;99.90;;;;;;4958546;28;20172;-76
2021/12/27 01:54:04;;;;;;;7.35;6.05;;;6.00;99.90;;;;;;4975305;28;20602;-76
2021/12/27 01:56:30;;;;;;;6.25;5.03;;;6.10;99.90;;;;;;4974162;28;20530;-76
2021/12/27 01:58:58;;;;;;;6.15;4.90;;;6.10;99.90;;;;;;4974231;28;20304;-76
2021/12/27 02:01:25;;;;;;;8.68;7.40;;;6.10;99.90;;;;;;4974046;28;20179;-76
2021/12/27 02:03:53;;;;;;;7.25;6.30;;;6.10;99.90;;;;;;4974138;28;20199;-76
2021/12/27 02:06:19;;;;;;;7.55;5.80;;;6.00;99.90;;;;;;4973285;28;20498;-76
2021/12/27 02:08:46;;;;;;;7.20;6.25;;;6.10;99.90;;;;;;4973898;28;20628;-76
2021/12/27 02:11:15;;;;;;;7.97;6.30;;;6.00;99.90;;;;;;4973612;28;20254;-77
2021/12/27 02:13:43;;;;;;;8.20;6.28;;;6.00;99.90;;;;;;4940410;28;20171;-76
2021/12/27 02:16:11;;;;;;;9.23;7.25;;;6.10;99.90;;;;;;4973016;28;20704;-77
2021/12/27 02:18:37;;;;;;;7.40;6.50;;;6.10;99.90;;;;;;4956349;28;20183;-76
2021/12/27 02:21:04;;;;;;;5.75;5.15;;;6.10;99.90;;;;;;4955968;28;20180;-76
2021/12/27 02:23:29;;;;;;;6.20;5.15;;;6.10;99.90;;;;;;4973339;28;20567;-77
2021/12/27 02:25:55;;;;;;;6.10;5.50;;;6.10;99.90;;;;;;4972654;28;20251;-77
2021/12/27 02:28:21;;;;;;;6.50;5.27;;;6.10;99.90;;;;;;4973389;28;20376;-76
2021/12/27 02:30:49;;;;;;;5.47;5.07;;;6.10;99.90;;;;;;4939972;28;20579;-76
2021/12/27 02:33:16;;;;;;;5.90;4.95;;;6.20;99.90;;;;;;4973172;28;20210;-77
2021/12/27 02:35:45;;;;;;;6.22;5.47;;;6.20;99.90;;;;;;4972618;28;20183;-77
2021/12/27 02:38:15;;;;;;;6.40;5.72;;;6.20;99.90;;;;;;4956011;28;20207;-77
2021/12/27 02:40:42;;;;;;;6.68;6.07;;;6.30;99.90;;;;;;4955779;28;20175;-76
2021/12/27 02:43:10;;;;;;;5.13;4.53;;;6.20;99.90;;;;;;4973187;28;20290;-76
2021/12/27 02:45:49;;;;;;;6.35;5.75;;;6.30;99.90;;;;;;4972912;28;20196;-76
2021/12/27 02:48:19;;;;;;;7.05;5.20;;;6.30;99.90;;;;;;4973054;28;20552;-76
2021/12/27 02:50:47;;;;;;;6.30;5.10;;;6.30;99.90;;;;;;4973415;28;20171;-76
2021/12/27 02:53:13;;;;;;;6.22;5.63;;;6.30;99.90;;;;;;4972744;28;20543;-76
2021/12/27 02:55:39;;;;;;;5.85;4.75;;;6.30;99.90;;;;;;4972423;28;20591;-77
2021/12/27 02:58:05;;;;;;;6.38;5.38;;;6.30;99.90;;;;;;4972350;28;20619;-77
2021/12/27 03:00:52;;;;;;;4.63;4.20;;;6.30;99.90;;;;;;4955955;28;20199;-76
2021/12/27 03:03:18;;;;;;;7.50;6.70;;;6.30;99.90;;;;;;4971387;28;20626;-77
2021/12/27 03:05:45;;;;;;;5.85;5.20;;;6.40;99.90;;;;;;4972751;28;20168;-77
2021/12/27 03:08:14;;;;;;;7.53;6.20;;;6.40;99.90;;;;;;4972712;28;20640;-77
2021/12/27 03:10:48;;;;;;;6.55;5.95;;;6.40;99.90;;;;;;4973301;28;20175;-77
2021/12/27 03:13:28;;;;;;;7.25;6.53;;;6.40;99.90;;;;;;4972910;28;20179;-76
2021/12/27 03:15:57;;;;;;;7.68;6.88;;;6.30;99.90;;;;;;4939247;28;21093;-76
2021/12/27 03:18:24;;;;;;;8.10;6.00;;;6.40;99.90;;;;;;4955370;28;20210;-76
2021/12/27 03:20:51;;;;;;;5.57;4.63;;;6.40;99.90;;;;;;4972967;28;20218;-76
2021/12/27 03:23:17;;;;;;;7.88;6.63;;;6.40;99.90;;;;;;4954774;28;20226;-76
2021/12/27 03:25:43;;;;;;;7.83;6.63;;;6.30;99.90;;;;;;4972206;28;20216;-77
2021/12/27 03:28:09;;;;;;;6.95;6.10;;;6.30;99.90;;;;;;4955349;28;20757;-76
2021/12/27 03:30:36;;;;;;;8.57;6.97;;;6.30;99.90;;;;;;4955558;28;20259;-76
2021/12/27 03:33:04;;;;;;;8.32;6.78;;;6.30;99.90;;;;;;4972057;28;20178;-77
2021/12/27 03:35:35;;;;;;;8.23;6.28;;;6.30;99.90;;;;;;4955195;28;20233;-77
2021/12/27 03:38:03;;;;;;;7.40;6.15;;;6.30;99.90;;;;;;4972124;28;20219;-77
2021/12/27 03:40:28;;;;;;;8.00;6.90;;;6.30;99.90;;;;;;4972432;28;20183;-77
2021/12/27 03:42:55;;;;;;;6.63;4.97;;;6.30;99.90;;;;;;4971886;28;20172;-76
2021/12/27 03:45:34;;;;;;;6.82;6.03;;;6.40;99.90;;;;;;4955338;28;20603;-77
2021/12/27 03:48:01;;;;;;;7.55;6.13;;;6.40;99.90;;;;;;4972209;28;20199;-77
2021/12/27 03:50:27;;;;;;;8.70;6.60;;;6.40;99.90;;;;;;4972502;28;20276;-76
2021/12/27 03:52:54;;;;;;;8.20;6.73;;;6.40;99.90;;;;;;4970627;28;20262;-76
2021/12/27 03:55:21;;;;;;;6.95;6.22;;;6.40;99.90;;;;;;4938102;28;20575;-77
2021/12/27 03:57:53;;;;;;;6.13;5.53;;;6.40;99.90;;;;;;4971592;28;20198;-76
2021/12/27 04:02:48;;;;;;;7.78;6.82;;;6.40;99.90;;;;;;4971996;28;20283;-76
2021/12/27 04:05:14;;;;;;;7.90;6.00;;;6.40;99.90;;;;;;4981855;23;20660;-73
2021/12/27 04:07:43;;;;;;;6.97;5.55;;;6.40;99.90;;;;;;4952558;28;20168;-74
2021/12/27 04:10:09;;;;;;;7.65;6.00;;;6.40;99.90;;;;;;4956588;28;20176;-74
2021/12/27 04:12:35;;;;;;;7.20;6.45;;;6.40;99.90;;;;;;4956578;28;20165;-73
2021/12/27 04:15:03;;;;;;;6.10;5.22;;;6.40;99.90;;;;;;4956403;28;20258;-74
2021/12/27 04:17:29;;;;;;;7.53;6.07;;;6.40;99.90;;;;;;4956602;28;20176;-74
2021/12/27 04:19:55;;;;;;;7.47;6.68;;;6.40;99.90;;;;;;4956323;29;20228;-74
2021/12/27 04:22:20;;;;;;;7.07;6.03;;;6.50;99.90;;;;;;4956529;29;20570;-74
2021/12/27 04:24:46;;;;;;;6.00;5.40;;;6.50;99.90;;;;;;4956060;28;21199;-73
2021/12/27 04:27:12;;;;;;;5.30;4.80;;;6.60;99.90;;;;;;4956292;29;20171;-73
2021/12/27 04:29:37;;;;;;;7.40;5.47;;;6.60;99.90;;;;;;4954947;29;20168;-73
2021/12/27 04:32:04;;;;;;;8.40;6.57;;;6.60;99.90;;;;;;4971202;28;20165;-73
2021/12/27 04:34:29;;;;;;;7.22;5.60;;;6.60;99.90;;;;;;4954818;28;20189;-73
2021/12/27 04:36:55;;;;;;;6.83;5.97;;;6.60;99.90;;;;;;4956303;28;20223;-73
2021/12/27 04:39:21;;;;;;;5.70;4.83;;;6.60;99.90;;;;;;4956290;29;20262;-73
2021/12/27 04:41:48;;;;;;;5.13;4.63;;;6.60;99.90;;;;;;4955992;29;20173;-73
2021/12/27 04:44:14;;;;;;;5.15;4.60;;;6.70;99.90;;;;;;4956145;28;20611;-73
2021/12/27 04:46:40;;;;;;;7.77;5.50;;;6.70;99.90;;;;;;4955181;29;20660;-74
2021/12/27 04:49:05;;;;;;;7.13;6.30;;;6.80;99.90;;;;;;4956010;29;20579;-74
2021/12/27 04:51:31;;;;;;;7.73;5.80;;;6.70;99.90;;;;;;4955956;29;20176;-73
2021/12/27 04:53:57;;;;;;;7.83;6.33;;;6.70;99.90;;;;;;4956244;29;20169;-74
2021/12/27 04:56:22;;;;;;;6.80;5.33;;;6.70;99.90;;;;;;4956544;29;20168;-73
2021/12/27 04:58:48;;;;;;;6.80;5.47;;;6.70;99.90;;;;;;4955960;29;20180;-74
2021/12/27 05:01:14;;;;;;;5.78;5.10;;;6.80;99.90;;;;;;4954325;28;20176;-74
2021/12/27 05:03:40;;;;;;;5.10;4.53;;;6.80;99.90;;;;;;4955809;28;20200;-74
2021/12/27 05:06:06;;;;;;;7.30;5.60;;;6.80;99.90;;;;;;4955275;29;20612;-74
2021/12/27 05:08:32;;;;;;;5.90;5.00;;;6.80;99.90;;;;;;4955780;28;20179;-74
2021/12/27 05:10:58;;;;;;;6.60;5.07;;;6.80;99.90;;;;;;4955307;28;20568;-74
2021/12/27 05:13:23;;;;;;;7.57;6.20;;;6.80;99.90;;;;;;4955447;29;20568;-74
2021/12/27 05:15:49;;;;;;;5.53;4.40;;;6.80;99.90;;;;;;4955289;29;20193;-74
2021/12/27 05:18:15;;;;;;;6.57;5.27;;;6.80;99.90;;;;;;4955173;29;20185;-74
2021/12/27 05:20:41;;;;;;;8.30;6.00;;;6.80;99.90;;;;;;4954482;28;20188;-74
2021/12/27 05:23:07;;;;;;;10.13;6.83;;;6.80;99.90;;;;;;4953865;29;20204;-74
2021/12/27 05:25:32;;;;;;;5.83;5.20;;;6.80;99.90;;;;;;4967645;28;20196;-74
2021/12/27 05:27:58;;;;;;;6.23;5.43;;;6.80;99.90;;;;;;4941370;29;20204;-74
2021/12/27 05:30:24;;;;;;;7.43;4.30;;;6.80;99.90;;;;;;4950802;29;20826;-74
2021/12/27 05:32:49;;;;;;;5.53;4.57;;;6.90;99.90;;;;;;4918850;29;20581;-74
2021/12/27 05:35:15;;;;;;;6.93;5.90;;;6.90;99.90;;;;;;4934469;29;20204;-74
2021/12/27 05:37:43;;;;;;;5.53;4.75;;;6.90;99.90;;;;;;4935742;29;20173;-74
2021/12/27 05:40:14;;;;;;;5.22;4.72;;;6.90;99.90;;;;;;4935905;29;20587;-74
2021/12/27 05:42:40;;;;;;;5.50;5.00;;;6.90;99.90;;;;;;4935642;29;20252;-73
2021/12/27 05:45:07;;;;;;;6.70;5.83;;;6.90;99.90;;;;;;4953537;29;20271;-72
2021/12/27 05:47:33;;;;;;;7.65;5.72;;;6.90;99.90;;;;;;4954470;28;20575;-73
2021/12/27 05:49:58;;;;;;;7.60;5.50;;;7.00;99.90;;;;;;4954769;29;20216;-73
2021/12/27 05:52:24;;;;;;;7.03;5.77;;;7.00;99.90;;;;;;4954604;28;20572;-74
2021/12/27 05:54:50;;;;;;;6.47;4.90;;;7.00;99.90;;;;;;4954592;29;20250;-74
2021/12/27 05:57:16;;;;;;;8.97;6.37;;;7.00;99.90;;;;;;4954684;29;20580;-74
2021/12/27 05:59:42;;;;;;;6.38;5.10;;;6.90;99.90;;;;;;4953300;29;20583;-74
2021/12/27 06:02:07;;;;;;;5.10;4.60;;;7.00;99.90;;;;;;4953518;29;20663;-74
2021/12/27 06:04:33;;;;;;;6.63;4.60;;;6.90;99.90;;;;;;4936746;29;20344;-74
2021/12/27 06:06:59;;;;;;;5.90;5.30;;;7.00;99.90;;;;;;4954536;29;20188;-74
2021/12/27 06:09:24;;;;;;;7.37;6.27;;;7.00;99.90;;;;;;4954416;29;20173;-74
2021/12/27 06:11:50;;;;;;;7.20;4.70;;;7.00;99.90;;;;;;4953293;29;20539;-74
2021/12/27 06:14:16;;;;;;;4.90;4.13;;;7.00;99.90;;;;;;4954024;29;20323;-74
2021/12/27 06:16:42;;;;;;;4.90;3.70;;;7.10;99.90;;;;;;4954190;29;20173;-74
2021/12/27 06:19:07;;;;;;;8.67;5.57;;;7.00;99.90;;;;;;4954240;29;20172;-74
2021/12/27 06:21:33;;;;;;;7.13;5.33;;;7.00;99.90;;;;;;4969140;28;20181;-74
2021/12/27 06:24:01;;;;;;;5.72;4.95;;;7.00;99.90;;;;;;4954240;28;20319;-74
2021/12/27 06:26:26;;;;;;;7.43;5.20;;;7.00;99.90;;;;;;4953153;29;20228;-74
2021/12/27 06:28:52;;;;;;;5.57;4.10;;;7.00;99.90;;;;;;4952790;29;20184;-73
2021/12/27 06:31:19;;;;;;;5.70;4.73;;;7.10;99.90;;;;;;4954007;28;20572;-73
2021/12/27 06:33:45;;;;;;;6.50;5.10;;;7.10;99.90;;;;;;4953901;28;20208;-73
2021/12/27 06:36:11;;;;;;;6.10;4.40;;;7.10;99.90;;;;;;4954041;28;20544;-73
2021/12/27 06:38:37;;;;;;;7.00;5.30;;;7.20;99.90;;;;;;4953991;29;20231;-73
2021/12/27 06:41:03;;;;;;;4.80;4.30;;;7.20;99.90;;;;;;4953711;29;20604;-73
2021/12/27 06:43:30;;;;;;;4.93;4.45;;;7.20;99.90;;;;;;4952752;29;20228;-73
2021/12/27 06:45:57;;;;;;;6.63;4.72;;;7.20;99.90;;;;;;4953689;28;20279;-73
2021/12/27 06:48:23;;;;;;;5.50;4.68;;;7.20;99.90;;;;;;4954033;28;20192;-73
2021/12/27 06:50:49;;;;;;;5.22;4.50;;;7.20;99.90;;;;;;4953632;28;20168;-73
2021/12/27 06:53:16;;;;;;;6.37;4.80;;;7.20;99.90;;;;;;4953946;29;20645;-74
2021/12/27 06:55:46;;;;;;;7.53;5.70;;;7.20;99.90;;;;;;4952385;29;20785;-74
2021/12/27 06:58:13;;;;;;;5.15;4.28;;;7.20;99.90;;;;;;4954181;28;20207;-73
2021/12/27 07:00:39;;;;;;;5.30;4.78;;;7.20;99.90;;;;;;4952654;29;20176;-73
2021/12/27 07:03:05;;;;;;;5.50;4.85;;;7.20;99.90;;;;;;4954047;28;20200;-73
2021/12/27 07:05:31;;;;;;;6.15;5.25;;;7.20;99.90;;;;;;4968199;28;20203;-74
2021/12/27 07:07:57;;;;;;;4.60;4.00;;;7.20;99.90;;;;;;4935492;28;20586;-73
2021/12/27 07:10:23;;;;;;;5.40;4.30;;;7.20;99.90;;;;;;4933182;29;20569;-73
2021/12/27 07:12:50;;;;;;;5.20;4.70;;;7.20;99.90;;;;;;4934288;29;20533;-73
2021/12/27 07:15:16;;;;;;;5.22;4.65;;;7.20;99.90;;;;;;4934458;29;20597;-73
2021/12/27 07:17:43;;;;;;;4.63;3.92;;;7.20;99.90;;;;;;4932992;29;20252;-73
2021/12/27 07:20:09;;;;;;;6.28;4.60;;;7.30;99.90;;;;;;4934513;29;20221;-74
2021/12/27 07:22:35;;;;;;;6.40;4.80;;;7.30;99.90;;;;;;4932920;29;20169;-74
2021/12/27 07:25:01;;;;;;;6.27;5.10;;;7.30;99.90;;;;;;4934393;29;20215;-74
2021/12/27 07:27:26;;;;;;;5.20;4.50;;;7.30;99.90;;;;;;4932797;29;20577;-74
2021/12/27 07:29:53;;;;;;;5.03;3.90;;;7.30;99.90;;;;;;4934205;29;20685;-73
2021/12/27 07:32:19;;;;;;;5.88;4.40;;;7.30;99.90;;;;;;4917082;29;20224;-74
2021/12/27 07:34:45;;;;;;;5.80;4.50;;;7.30;99.90;;;;;;4934226;29;20201;-73
2021/12/27 07:37:11;;;;;;;5.18;4.25;;;7.30;99.90;;;;;;4934098;29;20189;-73
2021/12/27 07:39:37;;;;;;;5.37;4.77;;;7.20;99.90;;;;;;4932977;29;20532;-74
2021/12/27 07:42:04;;;;;;;7.20;4.93;;;7.20;99.90;;;;;;4933003;29;20597;-74
2021/12/27 07:44:30;;;;;;;4.85;4.22;;;7.10;99.90;;;;;;4936125;29;20204;-74
2021/12/27 07:46:55;;;;;;;4.80;4.30;;;7.10;99.90;;;;;;4937871;29;20169;-73
2021/12/27 07:49:21;;;;;;;6.17;4.63;;;7.10;99.90;;;;;;4937679;29;20173;-73
2021/12/27 07:51:47;;;;;;;7.13;5.70;;;7.10;99.90;;;;;;4938059;29;20257;-73
2021/12/27 07:54:13;;;;;;;4.97;4.10;;;7.00;99.90;;;;;;4936376;29;20614;-73
2021/12/27 07:56:39;;;;;;;6.10;4.63;;;7.00;99.90;;;;;;4937696;29;20579;-73
2021/12/27 07:59:04;;;;;;;5.87;5.27;;;7.00;99.90;;;;;;4937668;29;20180;-74
2021/12/27 08:01:32;;;;;;;7.33;5.40;;;7.00;99.90;;;;;;4936501;29;20169;-73
2021/12/27 08:03:57;;;;;;;9.25;6.38;;;7.00;99.90;;;;;;4937458;29;20616;-74
2021/12/27 08:06:23;;;;;;;6.53;5.60;;;7.00;99.90;;;;;;4937444;29;20672;-73
2021/12/27 08:08:49;;;;;;;8.70;5.30;;;7.00;99.90;;;;;;4937529;29;20568;-73
2021/12/27 08:11:15;;;;;;;7.43;5.60;;;7.00;99.90;;;;;;4937358;29;20173;-74
2021/12/27 08:13:42;;;;;;;6.17;5.10;;;7.00;99.90;;;;;;4937256;29;20264;-74
2021/12/27 08:16:09;;;;;;;5.50;4.75;;;7.10;99.90;;;;;;4935907;29;20185;-74
2021/12/27 08:18:35;;;;;;;6.55;5.85;;;7.10;99.90;;;;;;4937365;29;20260;-74
2021/12/27 08:21:01;;;;;;;5.40;4.43;;;7.20;99.90;;;;;;4937097;29;20299;-74
2021/12/27 08:23:27;;;;;;;6.13;5.18;;;7.20;99.90;;;;;;4935963;29;20655;-74
2021/12/27 08:25:53;;;;;;;5.73;5.10;;;7.20;99.90;;;;;;4937764;29;20585;-74
2021/12/27 08:28:20;;;;;;;9.95;5.88;;;7.30;99.90;;;;;;4937546;29;20196;-74
2021/12/27 08:30:46;;;;;;;8.07;5.85;;;7.40;99.90;;;;;;4937113;29;20789;-73
2021/12/27 08:33:12;;;;;;;8.48;7.15;;;7.40;99.90;;;;;;4937222;29;20216;-74
2021/12/27 08:35:38;;;;;;;6.57;5.85;;;7.40;99.90;;;;;;4937223;29;20205;-73
2021/12/27 08:38:04;;;;;;;6.18;5.07;;;7.40;99.90;;;;;;4937098;29;20173;-73
2021/12/27 08:40:30;;;;;;;5.70;5.10;;;7.50;99.90;;;;;;4937070;29;20180;-73
2021/12/27 08:42:56;;;;;;;7.10;5.50;;;7.50;99.90;;;;;;4936395;29;20786;-74
2021/12/27 08:45:22;;;;;;;7.47;6.40;;;7.50;99.90;;;;;;4937273;29;20185;-73
2021/12/27 08:47:48;;;;;;;7.00;5.60;;;7.50;99.90;;;;;;4935237;29;20683;-74
2021/12/27 08:50:17;;;;;;;6.50;5.77;;;7.60;99.90;;;;;;4935759;29;20265;-74
2021/12/27 08:52:45;;;;;;;6.10;5.50;;;7.60;99.90;;;;;;4936334;29;20256;-74
2021/12/27 08:55:12;;;;;;;4.47;4.07;;;7.70;99.90;;;;;;4933986;29;20219;-74
2021/12/27 08:57:38;;;;;;;5.47;4.97;;;7.80;99.90;;;;;;4936156;29;20180;-74
2021/12/27 09:00:07;;;;;;;6.78;5.05;;;7.80;99.90;;;;;;4941009;29;20188;-73
2021/12/27 09:02:33;;;;;;;5.82;5.32;;;7.80;99.90;;;;;;4954308;29;20169;-73
2021/12/27 09:04:59;;;;;;;7.57;6.83;;;7.80;99.90;;;;;;4954582;29;20378;-74
2021/12/27 09:07:25;;;;;;;6.53;5.40;;;7.80;99.90;;;;;;4952309;28;20589;-74
2021/12/27 09:09:50;;;;;;;6.90;5.93;;;7.90;99.90;;;;;;4950140;29;20595;-74
2021/12/27 09:12:16;;;;;;;5.83;4.60;;;7.90;99.90;;;;;;4953776;29;20531;-74
2021/12/27 09:14:42;;;;;;;4.82;4.13;;;7.90;99.90;;;;;;4955005;29;20287;-74
2021/12/27 09:17:08;;;;;;;5.80;5.20;;;8.00;99.90;;;;;;4953676;29;20208;-74
2021/12/27 09:19:40;;;;;;;7.20;6.50;;;8.10;99.90;;;;;;4938159;29;20308;-74
2021/12/27 09:22:06;;;;;;;6.07;5.47;;;8.20;99.90;;;;;;4953575;29;20599;-74
2021/12/27 09:24:31;;;;;;;6.80;5.10;;;8.10;99.90;;;;;;4937266;29;20616;-74
2021/12/27 09:26:58;;;;;;;7.83;6.03;;;8.10;99.90;;;;;;4954249;28;20173;-74
2021/12/27 09:29:24;;;;;;;9.45;5.43;;;8.10;99.90;;;;;;4952776;28;20209;-74
2021/12/27 09:31:50;;;;;;;4.75;4.25;;;8.10;99.90;;;;;;4935244;29;20254;-74
2021/12/27 09:34:17;;;;;;;5.33;4.67;;;8.10;99.90;;;;;;4935553;29;20703;-74
2021/12/27 09:36:43;;;;;;;7.38;5.63;;;8.10;99.90;;;;;;4935203;29;20569;-74
2021/12/27 09:39:09;;;;;;;6.63;5.80;;;8.10;99.90;;;;;;4950245;29;20629;-74
2021/12/27 09:41:35;;;;;;;5.47;4.40;;;8.10;99.90;;;;;;4937053;29;20213;-74
2021/12/27 09:44:02;;;;;;;6.90;5.63;;;8.10;99.90;;;;;;4951142;28;20192;-74
2021/12/27 09:46:28;;;;;;;6.60;5.20;;;8.10;99.90;;;;;;4955141;28;20183;-74
2021/12/27 09:48:57;;;;;;;8.80;6.40;;;8.10;99.90;;;;;;4952899;28;20255;-74
2021/12/27 09:51:23;;;;;;;6.32;5.32;;;8.10;99.90;;;;;;4948127;28;20173;-74
2021/12/27 09:53:49;;;;;;;9.03;7.00;;;8.10;99.90;;;;;;4950712;29;20497;-75
2021/12/27 09:56:15;;;;;;;7.00;5.85;;;8.10;99.90;;;;;;4950163;29;20647;-74
2021/12/27 09:58:41;;;;;;;10.20;7.88;;;8.10;99.90;;;;;;4949047;29;20184;-74
2021/12/27 10:01:07;;;;;;;8.93;6.23;;;8.10;99.90;;;;;;4914434;29;20538;-74
2021/12/27 10:03:47;;;;;;;7.10;5.97;;;8.20;99.90;;;;;;4943382;29;20644;-74
2021/12/27 10:06:13;;;;;;;10.15;7.30;;;8.20;99.90;;;;;;4950857;28;20300;-75
2021/12/27 10:08:42;;;;;;;7.45;5.60;;;8.30;99.90;;;;;;4952643;28;20173;-75
2021/12/27 10:11:15;;;;;;;8.85;6.15;;;8.40;99.90;;;;;;4951751;29;20188;-75
2021/12/27 10:13:58;;;;;;;6.10;5.00;;;8.50;99.90;;;;;;4960861;28;20180;-74
2021/12/27 10:16:24;;;;;;;7.45;5.70;;;8.60;99.90;;;;;;4934409;28;20853;-74
2021/12/27 10:18:55;;;;;;;6.82;5.35;;;8.60;99.90;;;;;;4953509;28;20199;-74
2021/12/27 10:21:21;;;;;;;6.75;6.05;;;8.60;99.90;;;;;;4953922;28;20172;-74
2021/12/27 10:23:47;;;;;;;6.47;5.10;;;8.60;99.90;;;;;;4953952;28;20566;-74
2021/12/27 10:26:19;;;;;;;5.73;4.97;;;8.60;99.90;;;;;;4953718;29;20184;-75
2021/12/27 10:28:45;;;;;;;7.25;5.32;;;8.70;99.90;;;;;;4953609;29;20572;-74
2021/12/27 10:31:11;;;;;;;5.25;4.40;;;8.70;99.90;;;;;;4954022;29;20185;-74
2021/12/27 10:33:37;;;;;;;5.83;5.33;;;8.80;99.90;;;;;;4952759;29;20168;-74
2021/12/27 10:36:03;;;;;;;6.50;5.47;;;8.80;99.90;;;;;;4953418;29;20188;-74
2021/12/27 10:38:32;;;;;;;5.60;4.43;;;8.90;99.90;;;;;;4947868;29;20180;-74
2021/12/27 10:41:10;;;;;;;5.13;4.63;;;9.00;99.90;;;;;;4938691;29;20259;-75
2021/12/27 10:43:41;;;;;;;6.95;5.68;;;9.10;99.90;;;;;;4951933;29;20203;-75
2021/12/27 10:46:11;;;;;;;5.80;5.18;;;8.90;99.90;;;;;;4941399;28;20201;-75
2021/12/27 10:48:40;;;;;;;6.40;4.97;;;8.90;99.90;;;;;;4933978;29;20169;-76
2021/12/27 10:51:07;;;;;;;5.55;4.82;;;9.00;99.90;;;;;;4937509;29;20165;-76
2021/12/27 10:53:51;;;;;;;5.28;4.22;;;9.00;99.90;;;;;;4936375;29;20208;-77
2021/12/27 10:56:19;;;;;;;4.88;4.20;;;9.10;99.90;;;;;;4952754;28;20195;-77
2021/12/27 11:02:33;;;;;;;5.70;4.38;;;9.10;99.90;;;;;;4946153;29;20308;-77
2021/12/27 11:05:12;;;;;;;4.47;4.07;;;9.20;99.90;;;;;;4944090;29;20686;-77
2021/12/27 11:07:39;;;;;;;5.07;4.35;;;9.30;99.90;;;;;;4992400;23;20202;-76
2021/12/27 11:10:26;;;;;;;5.75;4.78;;;9.20;99.90;;;;;;4990268;28;20174;-75
2021/12/27 11:12:52;;;;;;;4.95;4.25;;;9.20;99.90;;;;;;4954205;28;20183;-75
2021/12/27 11:15:18;;;;;;;4.40;3.97;;;9.20;99.90;;;;;;4939175;28;20682;-75
2021/12/27 11:17:44;;;;;;;8.10;6.30;;;9.20;99.90;;;;;;4971839;28;20606;-75
2021/12/27 11:20:12;;;;;;;6.50;5.28;;;9.20;99.90;;;;;;4976133;28;20687;-75
2021/12/27 11:22:40;;;;;;;5.75;5.25;;;9.10;99.90;;;;;;4958309;28;20164;-75
2021/12/27 11:25:19;;;;;;;5.75;4.78;;;9.10;99.90;;;;;;4975995;28;20610;-75
2021/12/27 11:27:45;;;;;;;6.25;4.57;;;9.10;99.90;;;;;;4975488;28;20200;-74
2021/12/27 11:30:12;;;;;;;4.93;4.43;;;9.10;99.90;;;;;;4979062;28;20202;-75
2021/12/27 11:33:12;;;;;;;8.25;4.65;;;9.10;99.90;;;;;;4975783;28;20203;-75
2021/12/27 11:36:01;;;;;;;3.88;3.47;;;9.10;99.90;;;;;;4944178;28;20179;-74
2021/12/27 11:38:28;;;;;;;4.75;4.03;;;9.20;99.90;;;;;;4970062;28;20258;-74
2021/12/27 11:40:54;;;;;;;5.30;4.78;;;9.30;99.90;;;;;;4958064;28;20663;-75
2021/12/27 11:43:20;;;;;;;4.87;4.40;;;9.30;99.90;;;;;;4948249;28;20203;-74
2021/12/27 11:45:54;;;;;;;3.67;3.37;;;9.40;99.90;;;;;;4976457;28;21246;-74
2021/12/27 11:48:26;;;;;;;7.22;4.78;;;9.50;99.90;;;;;;4979622;28;20709;-74
2021/12/27 11:51:03;;;;;;;4.63;4.22;;;9.60;99.90;;;;;;4957910;28;20168;-75
2021/12/27 11:53:36;;;;;;;4.70;4.00;;;9.60;99.90;;;;;;4975152;28;20218;-75
2021/12/27 11:56:08;;;;;;;4.47;4.07;;;9.70;99.90;;;;;;4973614;28;20250;-74
2021/12/27 11:58:44;;;;;;;5.30;3.97;;;9.80;99.90;;;;;;4974006;28;20789;-75
2021/12/27 12:01:21;;;;;;;4.82;4.10;;;9.90;99.90;;;;;;4954376;29;20180;-74
2021/12/27 12:03:49;;;;;;;4.20;3.80;;;10.00;99.90;;;;;;4955778;29;20246;-74
2021/12/27 12:06:35;;;;;;;4.25;3.00;;;10.00;99.90;;;;;;4955794;29;20253;-75
2021/12/27 12:09:08;;;;;;;3.13;2.85;;;10.10;99.90;;;;;;4965924;28;20722;-76
2021/12/27 12:11:34;;;;;;;2.70;2.35;;;10.10;99.90;;;;;;4957670;28;20168;-76
2021/12/27 12:14:23;;;;;;;3.80;3.40;;;10.20;99.90;;;;;;4974390;28;20258;-74
2021/12/27 12:16:49;;;;;;;4.00;3.10;;;10.20;99.90;;;;;;4956806;28;20195;-74
2021/12/27 12:19:15;;;;;;;5.00;3.45;;;10.30;99.90;;;;;;4958500;28;20264;-76
2021/12/27 12:21:51;;;;;;;4.15;3.75;;;10.30;99.90;;;;;;4977155;28;20191;-76
2021/12/27 12:24:22;;;;;;;3.67;3.30;;;10.30;99.90;;;;;;4974480;28;20199;-76
2021/12/27 12:26:49;;;;;;;4.20;3.80;;;10.30;99.90;;;;;;4975120;28;20246;-78
2021/12/27 12:29:15;;;;;;;6.05;5.40;;;10.30;99.90;;;;;;4958442;28;20171;-77
2021/12/27 12:31:41;;;;;;;4.27;3.87;;;10.30;99.90;;;;;;4975049;28;20168;-75
2021/12/27 12:34:18;;;;;;;3.97;3.53;;;10.40;99.90;;;;;;4974163;28;20653;-75
2021/12/27 12:37:08;;;;;;;4.80;4.30;;;10.40;99.90;;;;;;4940438;28;20188;-76
2021/12/27 12:39:49;;;;;;;5.30;4.80;;;10.40;99.90;;;;;;4974431;28;20207;-77
2021/12/27 12:42:24;;;;;;;6.45;4.88;;;10.40;99.90;;;;;;4965352;28;20573;-76
2021/12/27 12:44:59;;;;;;;5.28;4.13;;;10.40;99.90;;;;;;4973797;28;20191;-76
2021/12/27 12:47:27;;;;;;;4.55;3.72;;;10.40;99.90;;;;;;4973057;28;20198;-75
2021/12/27 12:49:52;;;;;;;4.30;3.72;;;10.30;99.90;;;;;;4954452;28;20250;-76
2021/12/27 12:52:20;;;;;;;4.67;3.00;;;10.30;99.90;;;;;;4966817;28;20243;-77
2021/12/27 12:54:46;;;;;;;2.63;2.42;;;10.30;99.90;;;;;;4957237;28;20309;-76
2021/12/27 12:57:17;;;;;;;2.70;2.50;;;10.30;99.90;;;;;;4955765;28;20200;-74
2021/12/27 12:59:46;;;;;;;2.70;2.50;;;10.30;99.90;;;;;;4957024;28;20179;-75
2021/12/27 13:02:17;;;;;;;3.55;3.25;;;10.30;99.90;;;;;;4971479;28;20168;-75
2021/12/27 13:05:02;;;;;;;3.25;2.58;;;10.30;99.90;;;;;;4973740;28;20199;-76
2021/12/27 13:07:53;;;;;;;2.83;2.50;;;10.30;99.90;;;;;;4971978;28;20270;-76
2021/12/27 13:10:33;;;;;;;3.80;2.38;;;10.30;99.90;;;;;;4972121;28;20183;-75